This is the latest recevied weather packets stored in our database for station/object KB2M. If no packets are shown the sender has not sent any weather packets the latest 10 day(s).
| Time | Temp. | Humidity | Pressure | Rain* | Wind** | Luminosity | Snow |
|---|---|---|---|---|---|---|---|
| 1777576721 | 26.67° C | 73% | 1010.8 hPa | 0 mm | - | - | - |
| 1777576121 | 29.44° C | 62% | 1010.4 hPa | 0 mm | - | - | - |
| 1777575520 | 30° C | 52% | 1010.4 hPa | 0 mm | - | - | - |
| 1777574920 | 30° C | 51% | 1010.8 hPa | 0 mm | - | - | - |
| 1777574319 | 29.44° C | 53% | 1011.1 hPa | 0 mm | - | - | - |
| 1777573719 | 29.44° C | 55% | 1011.1 hPa | 0 mm | - | - | - |
| 1777573118 | 28.89° C | 56% | 1011.1 hPa | 0 mm | - | - | - |
| 1777572518 | 28.89° C | 56% | 1011.5 hPa | 0 mm | - | - | - |
| 1777571917 | 28.89° C | 55% | 1011.5 hPa | 0 mm | - | - | - |
| 1777571317 | 28.89° C | 55% | 1011.8 hPa | 0 mm | - | - | - |
| 1777570716 | 28.89° C | 55% | 1011.8 hPa | 0 mm | - | - | - |
| 1777570115 | 28.89° C | 55% | 1012.1 hPa | 0 mm | - | - | - |
| 1777569515 | 28.89° C | 56% | 1012.1 hPa | 0 mm | - | - | - |
| 1777568915 | 28.33° C | 57% | 1012.1 hPa | 0 mm | - | - | - |
| 1777568314 | 28.89° C | 55% | 1012.5 hPa | 0 mm | - | - | - |
| 1777567713 | 28.33° C | 59% | 1012.5 hPa | 0 mm | - | - | - |
| 1777567113 | 28.33° C | 60% | 1012.8 hPa | 0 mm | - | - | - |
| 1777566512 | 27.78° C | 62% | 1012.5 hPa | 0 mm | - | - | - |
| 1777565911 | 27.78° C | 62% | 1012.8 hPa | 0 mm | - | - | - |
| 1777565311 | 27.22° C | 66% | 1013.2 hPa | 0 mm | - | - | - |
| 1777564710 | 26.67° C | 70% | 1013.2 hPa | 0 mm | - | - | - |
| 1777564109 | 26.67° C | 70% | 1013.2 hPa | 0 mm | - | - | - |
| 1777563509 | 26.67° C | 70% | 1013.2 hPa | 0 mm | - | - | - |
| 1777562908 | 26.11° C | 72% | 1013.2 hPa | 0 mm | - | - | - |
| 1777562307 | 25.56° C | 74% | 1013.2 hPa | 0 mm | - | - | - |
* Rain latest hour (hover to see other rain measurements)
** Current wind speed in m/s (hover to see current wind gust speed)